Time;durP1;ratioP1;P1;durP2;ratioP2;P2;SDS_P1;SDS_P2;PMS_P1;PMS_P2;Temp;Humidity;BMP_temperature;BMP_pressure;BME280_temperature;BME280_humidity;BME280_pressure;Samples;Min_cycle;Max_cycle;Signal;HPM_P1;HPM_P2
2022/10/15 00:00:45;;;;;;;80.47;43.92;;;13.30;99.90;;;;;;5033276;28;20033;-75
2022/10/15 00:03:11;;;;;;;78.55;44.22;;;13.30;99.90;;;;;;5034017;28;20029;-75
2022/10/15 00:05:38;;;;;;;90.00;47.92;;;13.30;99.90;;;;;;5034146;28;20029;-75
2022/10/15 00:08:05;;;;;;;82.47;45.10;;;13.30;99.90;;;;;;5033577;28;20071;-75
2022/10/15 00:10:31;;;;;;;78.50;45.20;;;13.30;99.90;;;;;;5034483;28;20465;-75
2022/10/15 00:12:56;;;;;;;87.57;46.10;;;13.30;99.90;;;;;;5034068;28;20036;-75
2022/10/15 00:15:22;;;;;;;78.90;45.22;;;13.30;99.90;;;;;;5029660;28;20436;-75
2022/10/15 00:17:48;;;;;;;93.68;47.92;;;13.30;99.90;;;;;;5014369;28;20026;-75
2022/10/15 00:20:13;;;;;;;99.07;48.88;;;13.40;99.90;;;;;;5011749;28;20026;-74
2022/10/15 00:22:39;;;;;;;105.18;50.47;;;13.40;99.90;;;;;;5009012;28;20038;-74
2022/10/15 00:25:05;;;;;;;103.88;52.03;;;13.50;99.90;;;;;;5019789;28;20101;-75
2022/10/15 00:27:32;;;;;;;93.10;47.97;;;13.40;99.90;;;;;;5023868;28;20033;-75
2022/10/15 00:29:59;;;;;;;98.05;48.45;;;13.40;99.90;;;;;;5023621;28;20110;-74
2022/10/15 00:32:25;;;;;;;104.45;51.20;;;13.40;99.90;;;;;;5027974;28;20029;-75
2022/10/15 00:34:51;;;;;;;85.93;45.22;;;13.40;99.90;;;;;;5032502;28;20083;-75
2022/10/15 00:37:16;;;;;;;107.18;51.88;;;13.40;99.90;;;;;;5033487;28;20105;-75
2022/10/15 00:39:42;;;;;;;102.32;49.45;;;13.40;99.90;;;;;;5006177;28;20480;-75
2022/10/15 00:42:09;;;;;;;109.63;52.83;;;13.40;99.90;;;;;;5032985;28;20033;-75
2022/10/15 00:44:54;;;;;;;102.38;51.85;;;13.50;99.90;;;;;;5032072;28;20033;-75
2022/10/15 00:47:25;;;;;;;111.40;53.15;;;13.40;99.90;;;;;;5033622;28;20404;-75
2022/10/15 00:50:02;;;;;;;114.55;53.85;;;13.40;99.90;;;;;;5026816;28;20022;-75
2022/10/15 00:52:52;;;;;;;120.57;54.17;;;13.40;99.90;;;;;;5026748;28;20037;-75
2022/10/15 00:55:29;;;;;;;111.78;52.47;;;13.40;99.90;;;;;;5025712;28;20045;-75
2022/10/15 00:58:00;;;;;;;109.63;52.88;;;13.40;99.90;;;;;;5032978;28;20021;-74
2022/10/15 01:00:26;;;;;;;104.97;52.25;;;13.40;99.90;;;;;;5037568;28;20040;-75
2022/10/15 01:02:52;;;;;;;114.60;50.70;;;13.40;99.90;;;;;;5037021;28;20404;-75
2022/10/15 01:05:18;;;;;;;107.85;50.67;;;13.40;99.90;;;;;;5036129;28;20025;-75
2022/10/15 01:07:43;;;;;;;127.30;53.38;;;13.30;99.90;;;;;;5037491;28;20387;-75
2022/10/15 01:10:10;;;;;;;110.03;48.90;;;13.30;99.90;;;;;;5037583;28;20025;-75
2022/10/15 01:12:48;;;;;;;113.32;50.42;;;13.30;99.90;;;;;;5037565;28;20104;-75
2022/10/15 01:15:45;;;;;;;109.28;47.17;;;13.20;99.90;;;;;;5037561;28;20025;-74
2022/10/15 01:18:24;;;;;;;116.68;48.22;;;13.20;99.90;;;;;;5037178;28;20087;-75
2022/10/15 01:21:24;;;;;;;111.25;49.75;;;13.20;99.90;;;;;;5036033;28;20037;-75
2022/10/15 01:24:08;;;;;;;104.25;47.50;;;13.10;99.90;;;;;;5037026;28;20427;-75
2022/10/15 01:26:51;;;;;;;;;;;13.10;99.90;;;;;;5035707;28;20079;-75
2022/10/15 01:29:47;;;;;;;96.67;45.73;;;13.10;99.90;;;;;;5037655;28;20271;-75
2022/10/15 01:32:33;;;;;;;116.55;51.22;;;13.10;99.90;;;;;;5037337;28;20080;-74
2022/10/15 01:35:36;;;;;;;121.32;52.92;;;13.20;99.90;;;;;;5037093;28;20030;-75
2022/10/15 01:38:09;;;;;;;118.88;51.55;;;13.20;99.90;;;;;;5036723;28;20029;-75
2022/10/15 01:40:47;;;;;;;125.75;50.95;;;13.30;99.90;;;;;;5036510;28;20030;-74
2022/10/15 01:43:20;;;;;;;118.75;47.67;;;13.30;99.90;;;;;;5036724;28;20033;-74
2022/10/15 01:45:48;;;;;;;;;;;13.40;99.90;;;;;;5037291;28;20033;-75
2022/10/15 01:48:16;;;;;;;103.18;43.58;;;13.40;99.90;;;;;;5036672;28;20304;-74
2022/10/15 01:50:46;;;;;;;113.38;46.42;;;13.40;99.90;;;;;;5036961;28;20033;-75
2022/10/15 01:53:25;;;;;;;121.18;45.08;;;13.40;99.90;;;;;;5036679;28;20060;-74
2022/10/15 01:55:54;;;;;;;109.95;40.22;;;13.40;99.90;;;;;;5036176;28;20049;-75
2022/10/15 01:58:20;;;;;;;102.10;38.97;;;13.40;99.90;;;;;;5035416;28;20037;-75
2022/10/15 02:00:46;;;;;;;86.15;35.50;;;13.40;99.90;;;;;;5036903;28;20033;-74
2022/10/15 02:03:13;;;;;;;67.55;32.58;;;13.40;99.90;;;;;;5036310;28;20447;-74
2022/10/15 02:05:47;;;;;;;75.90;32.78;;;13.40;99.90;;;;;;5036932;28;20029;-74
2022/10/15 02:08:29;;;;;;;73.70;30.90;;;13.40;99.90;;;;;;5036763;28;20143;-74
2022/10/15 02:11:03;;;;;;;67.88;30.90;;;13.40;99.90;;;;;;5037174;28;20516;-74
2022/10/15 02:13:47;;;;;;;61.35;29.35;;;13.30;99.90;;;;;;5036893;28;20495;-74
2022/10/15 02:16:18;;;;;;;61.85;28.83;;;13.30;99.90;;;;;;5036032;28;20083;-74
2022/10/15 02:18:57;;;;;;;52.53;25.23;;;13.20;99.90;;;;;;5036268;28;20018;-75
2022/10/15 02:21:32;;;;;;;61.47;27.35;;;13.20;99.90;;;;;;5036274;28;20030;-75
2022/10/15 02:24:12;;;;;;;56.35;26.27;;;13.10;99.90;;;;;;5035997;28;20358;-75
2022/10/15 02:26:39;;;;;;;58.65;25.63;;;13.10;99.90;;;;;;5036043;28;20021;-74
2022/10/15 02:29:09;;;;;;;70.32;25.95;;;13.00;99.90;;;;;;5034351;28;20244;-75
2022/10/15 02:31:38;;;;;;;56.42;24.00;;;12.90;99.90;;;;;;5034555;28;20504;-75
2022/10/15 02:34:06;;;;;;;49.00;23.95;;;12.80;99.90;;;;;;5035993;28;20018;-75
2022/10/15 02:36:32;;;;;;;45.70;22.92;;;12.80;99.90;;;;;;5036372;28;20018;-75
2022/10/15 02:39:00;;;;;;;47.50;23.15;;;12.60;99.90;;;;;;5035702;28;20021;-74
2022/10/15 02:41:28;;;;;;;45.58;20.95;;;12.50;99.90;;;;;;5035718;28;20034;-75
2022/10/15 02:43:56;;;;;;;46.88;22.27;;;12.30;99.90;;;;;;5035264;28;20033;-74
2022/10/15 02:46:22;;;;;;;52.53;24.02;;;12.20;99.90;;;;;;5035703;28;20031;-75
2022/10/15 02:48:47;;;;;;;52.15;25.75;;;12.10;99.90;;;;;;5035671;28;20108;-74
2022/10/15 02:51:13;;;;;;;57.75;23.73;;;12.00;99.90;;;;;;5035517;28;20026;-75
2022/10/15 02:53:38;;;;;;;64.25;25.40;;;11.90;99.90;;;;;;5034562;28;20460;-75
2022/10/15 02:56:04;;;;;;;58.03;23.42;;;11.80;99.90;;;;;;5034870;28;20056;-74
2022/10/15 02:58:29;;;;;;;45.53;23.58;;;11.70;99.90;;;;;;5035981;28;20105;-74
2022/10/15 03:00:55;;;;;;;52.28;24.85;;;11.70;99.90;;;;;;5035359;28;20029;-75
2022/10/15 03:03:21;;;;;;;49.83;25.60;;;11.70;99.90;;;;;;5034674;28;20044;-74
2022/10/15 03:05:47;;;;;;;59.63;26.60;;;11.70;99.90;;;;;;5035376;28;20025;-75
2022/10/15 03:08:12;;;;;;;43.95;22.33;;;11.60;99.90;;;;;;5035225;28;20025;-75
2022/10/15 03:10:38;;;;;;;47.75;22.60;;;11.50;99.90;;;;;;5033929;28;20029;-74
2022/10/15 03:13:05;;;;;;;46.75;23.48;;;11.40;99.90;;;;;;5034485;28;20030;-75
2022/10/15 03:15:32;;;;;;;40.88;21.60;;;11.40;99.90;;;;;;5035167;28;20017;-75
2022/10/15 03:17:57;;;;;;;43.95;22.38;;;11.30;99.90;;;;;;5034882;28;20113;-75
2022/10/15 03:20:24;;;;;;;33.53;19.83;;;11.20;99.90;;;;;;5034852;28;20064;-75
2022/10/15 03:22:49;;;;;;;36.83;20.45;;;11.00;99.90;;;;;;5034754;28;20029;-74
2022/10/15 03:25:15;;;;;;;45.65;22.00;;;10.90;99.90;;;;;;5034899;28;20033;-75
2022/10/15 03:27:40;;;;;;;41.63;21.58;;;10.90;99.90;;;;;;5034421;28;20029;-75
2022/10/15 03:30:07;;;;;;;43.33;22.73;;;10.80;99.90;;;;;;5034775;28;20068;-74
2022/10/15 03:32:32;;;;;;;35.92;21.10;;;10.80;99.90;;;;;;5034861;28;20556;-75
2022/10/15 03:34:58;;;;;;;39.45;21.13;;;10.70;99.90;;;;;;5034357;28;20117;-74
2022/10/15 03:37:23;;;;;;;40.83;21.33;;;10.70;99.90;;;;;;5033465;28;20022;-75
2022/10/15 03:39:49;;;;;;;40.65;20.65;;;10.70;99.90;;;;;;5034594;28;20456;-75
2022/10/15 03:42:14;;;;;;;42.85;21.55;;;10.50;99.90;;;;;;5034617;28;20428;-74
2022/10/15 03:44:40;;;;;;;30.05;18.88;;;10.50;99.90;;;;;;5034592;28;20026;-75
2022/10/15 03:47:08;;;;;;;29.73;18.77;;;10.40;99.90;;;;;;5034023;28;20041;-74
2022/10/15 03:49:34;;;;;;;42.72;22.73;;;10.20;99.90;;;;;;5034732;28;20033;-75
2022/10/15 03:51:59;;;;;;;37.60;21.05;;;10.20;99.90;;;;;;5033411;28;20381;-74
2022/10/15 03:54:25;;;;;;;43.35;23.50;;;10.20;99.90;;;;;;5034738;28;20044;-75
2022/10/15 03:56:50;;;;;;;33.72;19.35;;;10.20;99.90;;;;;;5034241;28;20021;-75
2022/10/15 03:59:16;;;;;;;43.70;20.08;;;10.20;99.90;;;;;;5034453;28;20113;-75
2022/10/15 04:01:43;;;;;;;38.45;20.00;;;10.20;99.90;;;;;;5033589;28;20087;-74
2022/10/15 04:04:12;;;;;;;31.42;18.75;;;10.20;99.90;;;;;;5033232;28;20116;-75
2022/10/15 04:06:38;;;;;;;32.67;18.30;;;10.10;99.90;;;;;;5034305;28;20104;-74
2022/10/15 04:09:04;;;;;;;33.35;19.05;;;10.10;99.90;;;;;;5034557;28;20502;-75
2022/10/15 04:11:29;;;;;;;36.83;19.65;;;10.10;99.90;;;;;;5034385;28;20113;-74
2022/10/15 04:13:55;;;;;;;36.75;19.92;;;10.10;99.90;;;;;;5034420;28;20061;-74
2022/10/15 04:16:20;;;;;;;28.63;17.60;;;10.10;99.90;;;;;;5033519;28;20484;-75
2022/10/15 04:18:48;;;;;;;31.25;18.55;;;10.10;99.90;;;;;;5034849;28;20032;-75
2022/10/15 04:21:14;;;;;;;49.60;22.40;;;10.20;99.90;;;;;;5034026;28;20040;-74
2022/10/15 04:23:39;;;;;;;42.20;22.38;;;10.30;99.90;;;;;;5033897;28;20476;-75
2022/10/15 04:26:05;;;;;;;44.65;20.45;;;10.40;99.90;;;;;;5033658;28;20033;-74
2022/10/15 04:28:32;;;;;;;56.88;25.83;;;10.60;99.90;;;;;;5032194;28;20032;-75
2022/10/15 04:30:58;;;;;;;61.65;24.38;;;10.70;99.90;;;;;;5033226;28;20056;-75
2022/10/15 04:33:24;;;;;;;51.30;25.67;;;10.80;99.90;;;;;;5032549;28;20080;-75
2022/10/15 04:36:05;;;;;;;59.58;26.38;;;11.00;99.90;;;;;;5033841;28;20421;-75
2022/10/15 04:38:31;;;;;;;59.30;26.63;;;11.00;99.90;;;;;;5033049;28;20022;-75
2022/10/15 04:41:01;;;;;;;63.05;27.70;;;11.10;99.90;;;;;;5033689;28;20028;-75
2022/10/15 04:43:28;;;;;;;50.33;27.35;;;11.20;99.90;;;;;;5033487;28;20038;-74
2022/10/15 04:45:58;;;;;;;66.72;29.00;;;11.30;99.90;;;;;;5033679;28;20075;-75
2022/10/15 04:48:24;;;;;;;57.53;27.02;;;11.40;99.90;;;;;;5033618;28;20476;-75
2022/10/15 04:50:50;;;;;;;50.38;26.42;;;11.40;99.90;;;;;;5033575;28;20072;-75
2022/10/15 04:53:15;;;;;;;63.35;28.23;;;11.40;99.90;;;;;;5033615;28;20439;-75
2022/10/15 04:55:41;;;;;;;59.60;27.65;;;11.50;99.90;;;;;;5033966;28;20096;-75
2022/10/15 04:58:06;;;;;;;58.95;26.77;;;11.60;99.90;;;;;;5033690;28;20033;-75
2022/10/15 05:00:32;;;;;;;67.82;28.45;;;11.60;99.90;;;;;;5033518;28;20025;-75
2022/10/15 05:02:57;;;;;;;85.57;32.53;;;11.70;99.90;;;;;;5033003;28;20048;-74
2022/10/15 05:05:23;;;;;;;83.68;30.75;;;11.80;99.90;;;;;;5032319;28;20057;-75
2022/10/15 05:07:48;;;;;;;72.70;30.52;;;11.80;99.90;;;;;;5033667;28;20083;-75
2022/10/15 05:10:16;;;;;;;70.63;28.60;;;11.80;99.90;;;;;;5031762;28;20029;-74
2022/10/15 05:12:41;;;;;;;74.57;31.17;;;11.90;99.90;;;;;;5028481;28;20096;-75
2022/10/15 05:15:07;;;;;;;74.95;29.63;;;11.90;99.90;;;;;;5014321;28;20034;-75
2022/10/15 05:17:33;;;;;;;85.90;31.02;;;11.90;99.90;;;;;;5013778;28;20069;-75
2022/10/15 05:19:58;;;;;;;74.40;29.13;;;11.90;99.90;;;;;;5013654;28;20051;-75
2022/10/15 05:22:24;;;;;;;77.30;26.67;;;11.90;99.90;;;;;;5027351;28;20033;-75
2022/10/15 05:24:50;;;;;;;83.57;31.27;;;11.90;99.90;;;;;;5032094;28;20112;-75
2022/10/15 05:27:15;;;;;;;96.47;30.23;;;11.90;99.90;;;;;;5033445;28;20132;-75
2022/10/15 05:29:40;;;;;;;76.32;29.23;;;11.90;99.90;;;;;;5033327;28;20017;-75
2022/10/15 05:32:06;;;;;;;108.82;35.13;;;11.90;99.90;;;;;;5032780;28;20075;-75
2022/10/15 05:34:32;;;;;;;91.50;32.78;;;11.90;99.90;;;;;;5033329;28;20026;-75
2022/10/15 05:36:58;;;;;;;107.80;38.58;;;11.90;99.90;;;;;;5026499;28;20021;-75
2022/10/15 05:39:24;;;;;;;91.60;33.35;;;12.00;99.90;;;;;;5013626;28;20030;-75
2022/10/15 05:41:49;;;;;;;98.45;35.58;;;12.00;99.90;;;;;;5012363;28;20022;-75
2022/10/15 05:44:15;;;;;;;107.65;36.53;;;12.10;99.90;;;;;;5016681;28;20152;-75
2022/10/15 05:46:40;;;;;;;110.80;40.28;;;12.10;99.90;;;;;;5021389;28;20022;-75
2022/10/15 05:49:06;;;;;;;126.47;39.88;;;12.20;99.90;;;;;;5036723;28;20040;-75
2022/10/15 05:51:31;;;;;;;121.05;36.60;;;12.20;99.90;;;;;;5036540;28;20041;-75
2022/10/15 05:53:58;;;;;;;126.22;40.40;;;12.20;99.90;;;;;;5036236;28;20037;-74
2022/10/15 05:56:24;;;;;;;120.82;40.30;;;12.20;99.90;;;;;;5036692;28;20500;-75
2022/10/15 05:58:50;;;;;;;121.75;40.25;;;12.10;99.90;;;;;;5037182;28;20021;-74
2022/10/15 06:01:16;;;;;;;108.53;39.83;;;12.10;99.90;;;;;;5036651;28;20070;-75
2022/10/15 06:03:43;;;;;;;116.00;40.63;;;12.20;99.90;;;;;;5035925;28;20053;-75
2022/10/15 06:06:34;;;;;;;127.57;41.60;;;12.20;99.90;;;;;;5037092;28;20485;-74
2022/10/15 06:09:00;;;;;;;119.35;41.25;;;12.30;99.90;;;;;;5035015;28;20065;-74
2022/10/15 06:11:26;;;;;;;120.53;43.45;;;12.30;99.90;;;;;;5036665;28;20025;-74
2022/10/15 06:13:52;;;;;;;135.52;44.83;;;12.30;99.90;;;;;;5036753;28;20083;-75
2022/10/15 06:16:18;;;;;;;135.18;43.22;;;12.30;99.90;;;;;;5035990;28;20098;-75
2022/10/15 06:18:46;;;;;;;133.32;44.75;;;12.30;99.90;;;;;;5036482;28;20034;-75
2022/10/15 06:21:12;;;;;;;140.27;46.05;;;12.30;99.90;;;;;;5035941;28;20104;-75
2022/10/15 06:23:37;;;;;;;149.77;49.20;;;12.30;99.90;;;;;;5034837;28;20553;-75
2022/10/15 06:26:06;;;;;;;133.35;44.95;;;12.40;99.90;;;;;;5034421;28;20448;-75
2022/10/15 06:28:32;;;;;;;125.57;44.80;;;12.40;99.90;;;;;;5035982;28;20021;-75
2022/10/15 06:30:59;;;;;;;134.05;47.50;;;12.30;99.90;;;;;;5035865;28;20033;-75
2022/10/15 06:33:25;;;;;;;142.77;48.30;;;12.30;99.90;;;;;;5035899;28;20037;-75
2022/10/15 06:35:50;;;;;;;150.27;50.75;;;12.30;99.90;;;;;;5034648;28;20018;-75
2022/10/15 06:38:16;;;;;;;167.00;51.42;;;12.20;99.90;;;;;;5035456;28;20029;-75
2022/10/15 06:40:41;;;;;;;131.02;45.88;;;12.20;99.90;;;;;;5035753;28;20431;-75
2022/10/15 06:43:09;;;;;;;138.82;48.15;;;12.10;99.90;;;;;;5035636;28;20061;-75
2022/10/15 06:45:41;;;;;;;129.70;48.78;;;12.10;99.90;;;;;;5035683;28;20040;-75
2022/10/15 06:48:07;;;;;;;150.07;49.50;;;12.10;99.90;;;;;;5035175;28;20028;-75
2022/10/15 06:50:34;;;;;;;138.38;47.03;;;12.10;99.90;;;;;;5035661;28;20103;-75
2022/10/15 06:53:00;;;;;;;153.98;49.08;;;12.00;99.90;;;;;;5033828;28;20542;-75
2022/10/15 06:55:27;;;;;;;142.05;49.60;;;12.00;99.90;;;;;;5035450;28;20109;-75
2022/10/15 06:57:53;;;;;;;136.80;51.88;;;12.00;99.90;;;;;;5035571;28;20013;-75
2022/10/15 07:00:19;;;;;;;176.20;53.40;;;12.10;99.90;;;;;;5033762;28;20021;-75
2022/10/15 07:02:44;;;;;;;148.32;51.80;;;12.20;99.90;;;;;;5035370;28;20032;-75
2022/10/15 07:05:10;;;;;;;145.20;53.45;;;12.30;99.90;;;;;;5034386;28;20025;-75
2022/10/15 07:07:35;;;;;;;122.43;48.58;;;12.40;99.90;;;;;;5035228;28;20033;-75
2022/10/15 07:10:01;;;;;;;142.88;50.58;;;12.50;99.90;;;;;;5034798;28;20029;-75
2022/10/15 07:12:26;;;;;;;132.20;48.05;;;12.50;99.90;;;;;;5015710;28;20076;-75
2022/10/15 07:14:52;;;;;;;127.38;48.83;;;12.50;99.90;;;;;;5014854;28;20125;-75
2022/10/15 07:17:20;;;;;;;140.73;50.80;;;12.50;99.90;;;;;;5014290;28;20538;-75
2022/10/15 07:19:46;;;;;;;143.43;54.78;;;12.60;99.90;;;;;;5015249;28;20072;-75
2022/10/15 07:22:11;;;;;;;137.07;48.17;;;12.60;99.90;;;;;;5029091;28;20025;-75
2022/10/15 07:24:37;;;;;;;126.70;46.92;;;12.70;99.90;;;;;;5034432;28;20040;-75
2022/10/15 07:27:03;;;;;;;137.98;51.50;;;12.70;99.90;;;;;;5035092;28;20041;-75
2022/10/15 07:29:29;;;;;;;121.93;49.33;;;12.70;99.90;;;;;;5033601;28;20029;-75
2022/10/15 07:31:58;;;;;;;120.78;47.80;;;12.70;99.90;;;;;;5034917;28;20048;-75
2022/10/15 07:34:24;;;;;;;119.13;47.05;;;12.70;99.90;;;;;;5033463;28;20105;-75
2022/10/15 07:36:49;;;;;;;122.30;46.88;;;12.80;99.90;;;;;;5033051;28;20103;-75
2022/10/15 07:39:18;;;;;;;108.30;46.22;;;12.80;99.90;;;;;;5033428;28;20116;-75
2022/10/15 07:41:44;;;;;;;112.20;46.03;;;12.80;99.90;;;;;;5033293;28;20496;-75
2022/10/15 07:44:10;;;;;;;97.90;44.90;;;12.80;99.90;;;;;;5034130;28;20021;-75
2022/10/15 07:46:35;;;;;;;114.20;45.33;;;12.90;99.90;;;;;;5035018;28;20388;-75
2022/10/15 07:49:01;;;;;;;100.93;44.13;;;12.90;99.90;;;;;;5017540;28;20045;-75
2022/10/15 07:51:27;;;;;;;103.18;42.85;;;13.00;99.90;;;;;;5014572;28;20499;-74
2022/10/15 07:53:52;;;;;;;84.07;40.25;;;13.10;99.90;;;;;;5013436;28;20050;-73
2022/10/15 07:56:18;;;;;;;97.20;42.30;;;13.10;99.90;;;;;;5029224;28;20408;-74
2022/10/15 07:58:50;;;;;;;97.97;42.72;;;13.20;99.90;;;;;;5034014;28;20389;-74
2022/10/15 08:01:16;;;;;;;87.22;38.47;;;13.20;99.90;;;;;;5032997;28;20029;-74
2022/10/15 08:03:42;;;;;;;84.55;39.58;;;13.20;99.90;;;;;;5034407;28;20095;-74
2022/10/15 08:06:07;;;;;;;76.50;36.45;;;13.20;99.90;;;;;;5032130;28;20488;-74
2022/10/15 08:08:34;;;;;;;80.82;38.55;;;13.10;99.90;;;;;;5013849;28;20088;-74
2022/10/15 08:11:09;;;;;;;88.90;40.00;;;13.20;99.90;;;;;;5006801;28;20034;-76
2022/10/15 08:13:35;;;;;;;88.05;40.55;;;13.10;99.90;;;;;;5006116;28;20113;-75
2022/10/15 08:16:00;;;;;;;92.18;41.88;;;13.10;99.90;;;;;;5029902;28;20111;-75
2022/10/15 08:18:26;;;;;;;89.82;40.47;;;13.10;99.90;;;;;;5033882;28;20026;-75
2022/10/15 08:20:52;;;;;;;105.30;41.78;;;13.30;99.90;;;;;;5033686;28;20026;-73
2022/10/15 08:23:18;;;;;;;96.97;40.45;;;13.30;99.90;;;;;;5033849;28;20113;-75
2022/10/15 08:25:44;;;;;;;92.57;39.97;;;13.30;99.90;;;;;;5033454;28;20384;-75
2022/10/15 08:28:09;;;;;;;87.80;39.33;;;13.50;99.90;;;;;;5032605;28;20031;-75
2022/10/15 08:30:36;;;;;;;94.57;43.35;;;13.50;99.90;;;;;;5033615;28;20033;-75
2022/10/15 08:33:02;;;;;;;83.70;41.50;;;13.60;99.90;;;;;;5032327;28;20026;-75
2022/10/15 08:35:27;;;;;;;83.63;40.03;;;13.60;99.90;;;;;;5033693;28;20476;-75
2022/10/15 08:37:54;;;;;;;98.85;43.05;;;13.60;99.90;;;;;;5033039;28;20389;-74
2022/10/15 08:40:21;;;;;;;102.40;50.35;;;13.70;99.90;;;;;;5033779;28;20032;-75
2022/10/15 08:42:50;;;;;;;104.15;45.42;;;13.60;99.90;;;;;;5033591;28;20507;-74
2022/10/15 08:45:16;;;;;;;104.05;47.28;;;13.70;99.90;;;;;;5019555;28;20256;-73
2022/10/15 08:47:57;;;;;;;111.85;48.80;;;13.60;99.90;;;;;;5033300;28;20370;-74
2022/10/15 08:50:37;;;;;;;112.50;50.85;;;13.60;99.90;;;;;;5033518;28;20025;-75
2022/10/15 08:53:03;;;;;;;101.47;49.63;;;13.70;99.90;;;;;;5033347;28;20098;-75
2022/10/15 08:55:35;;;;;;;107.95;50.00;;;13.70;99.90;;;;;;5032258;28;20480;-75
2022/10/15 08:58:37;;;;;;;118.60;53.03;;;13.80;99.90;;;;;;5033792;28;20025;-74
2022/10/15 09:01:22;;;;;;;115.60;52.97;;;13.80;99.90;;;;;;5033246;28;20033;-74
2022/10/15 09:03:52;;;;;;;122.03;55.15;;;13.70;99.90;;;;;;5033563;28;20021;-74
2022/10/15 09:06:20;;;;;;;105.60;52.88;;;13.80;99.90;;;;;;5034353;28;20407;-75
2022/10/15 09:09:09;;;;;;;119.07;53.97;;;14.00;99.90;;;;;;5033179;28;20033;-74
2022/10/15 09:11:57;;;;;;;114.82;53.17;;;13.90;99.90;;;;;;5033690;28;20056;-75
2022/10/15 09:14:32;;;;;;;116.38;54.00;;;13.90;99.90;;;;;;5022293;28;20025;-74
2022/10/15 09:17:02;;;;;;;113.25;53.47;;;14.00;99.90;;;;;;5035961;28;20022;-75
2022/10/15 09:19:30;;;;;;;127.70;55.75;;;14.10;99.90;;;;;;5037256;28;20067;-75
2022/10/15 09:21:59;;;;;;;119.05;54.95;;;14.10;99.90;;;;;;5037325;28;20123;-75
2022/10/15 09:24:28;;;;;;;119.15;55.25;;;14.10;99.90;;;;;;5036589;28;20021;-75
2022/10/15 09:27:36;;;;;;;112.70;55.90;;;14.10;99.90;;;;;;5036952;28;20029;-74
2022/10/15 09:30:05;;;;;;;113.53;53.50;;;14.10;99.90;;;;;;5036771;28;20050;-76
2022/10/15 09:32:52;;;;;;;116.95;53.70;;;14.00;99.90;;;;;;5037349;28;20028;-75
2022/10/15 09:35:25;;;;;;;115.40;51.83;;;13.90;99.90;;;;;;5037828;28;20422;-75
2022/10/15 09:38:26;;;;;;;114.47;49.35;;;13.90;99.90;;;;;;5037052;28;20037;-75
2022/10/15 09:41:06;;;;;;;132.52;54.03;;;13.90;99.90;;;;;;5034168;28;20401;-75
2022/10/15 09:43:37;;;;;;;113.30;51.30;;;13.80;99.90;;;;;;5044766;23;20045;-69
2022/10/15 09:46:03;;;;;;;118.65;51.13;;;13.90;99.90;;;;;;5016840;28;20045;-70
2022/10/15 09:48:55;;;;;;;115.93;48.13;;;13.80;99.90;;;;;;5016523;28;20060;-70
2022/10/15 09:51:34;;;;;;;119.70;51.88;;;13.80;99.90;;;;;;5006202;28;20050;-69
2022/10/15 09:54:40;;;;;;;118.45;50.15;;;13.70;99.90;;;;;;5019128;28;20102;-69
2022/10/15 09:57:09;;;;;;;119.28;48.13;;;13.70;99.90;;;;;;5014588;28;20515;-69
2022/10/15 09:59:34;;;;;;;131.10;53.03;;;13.70;99.90;;;;;;5016378;28;20025;-69
2022/10/15 10:02:02;;;;;;;121.80;53.03;;;13.80;99.90;;;;;;5016427;28;20385;-69
2022/10/15 10:04:30;;;;;;;124.10;52.42;;;13.70;99.90;;;;;;5016162;28;20080;-70
2022/10/15 10:07:08;;;;;;;132.95;55.33;;;13.70;99.90;;;;;;5015691;28;20083;-69
2022/10/15 10:09:35;;;;;;;121.78;55.47;;;13.80;99.90;;;;;;5016365;28;20060;-69
2022/10/15 10:12:05;;;;;;;124.78;51.08;;;13.80;99.90;;;;;;5015831;28;20033;-69
2022/10/15 10:15:04;;;;;;;125.90;52.72;;;13.90;99.90;;;;;;5016216;28;20019;-69
2022/10/15 10:17:30;;;;;;;134.50;51.97;;;13.90;99.90;;;;;;5015541;28;20378;-69
2022/10/15 10:20:08;;;;;;;119.90;50.72;;;13.90;99.90;;;;;;5015776;28;20087;-69
2022/10/15 10:23:01;;;;;;;118.63;51.22;;;13.90;99.90;;;;;;5015938;28;20101;-69
2022/10/15 10:25:30;;;;;;;120.27;50.23;;;13.80;99.90;;;;;;5014697;28;20053;-69
2022/10/15 10:28:03;;;;;;;109.63;46.92;;;13.80;99.90;;;;;;5014780;28;20080;-70
2022/10/15 10:30:41;;;;;;;125.72;49.80;;;13.70;99.90;;;;;;5014707;28;20026;-69
2022/10/15 10:33:11;;;;;;;126.57;50.33;;;13.70;99.90;;;;;;5015362;28;20026;-70
2022/10/15 10:35:52;;;;;;;125.28;51.72;;;13.60;99.90;;;;;;5015998;28;20014;-69
2022/10/15 10:38:23;;;;;;;134.55;52.22;;;13.50;99.90;;;;;;5015790;28;20054;-70
2022/10/15 10:40:51;;;;;;;123.53;52.72;;;13.50;99.90;;;;;;5015558;28;20018;-69
2022/10/15 10:43:16;;;;;;;164.18;58.63;;;13.50;99.90;;;;;;5014642;28;20041;-69
2022/10/15 10:45:58;;;;;;;135.55;55.58;;;13.40;99.90;;;;;;5015373;28;20128;-70
2022/10/15 10:48:31;;;;;;;135.73;53.25;;;13.50;99.90;;;;;;5015264;28;20511;-69
2022/10/15 10:51:16;;;;;;;143.20;54.10;;;13.40;99.90;;;;;;5015531;28;20030;-69
2022/10/15 10:53:49;;;;;;;129.18;53.28;;;13.40;99.90;;;;;;5015119;28;20022;-69
2022/10/15 10:56:20;;;;;;;147.88;56.88;;;13.40;99.90;;;;;;5015454;28;20112;-69
2022/10/15 10:58:46;;;;;;;145.07;58.95;;;13.40;99.90;;;;;;5014601;28;20053;-69
2022/10/15 11:01:12;;;;;;;143.70;59.50;;;13.40;99.90;;;;;;5015036;28;20045;-69
2022/10/15 11:03:41;;;;;;;174.55;62.53;;;13.50;99.90;;;;;;5014960;28;20116;-69
2022/10/15 11:06:52;;;;;;;156.15;61.88;;;13.40;99.90;;;;;;5014807;28;20029;-69
2022/10/15 11:09:26;;;;;;;152.55;59.40;;;13.50;99.90;;;;;;5013047;28;20034;-70
2022/10/15 11:12:01;;;;;;;142.82;60.45;;;13.80;99.90;;;;;;5013534;28;20072;-69
2022/10/15 11:14:50;;;;;;;150.55;57.22;;;13.90;99.90;;;;;;5014699;28;20057;-69
2022/10/15 11:17:51;;;;;;;140.52;58.85;;;14.00;99.90;;;;;;5014223;28;20507;-70
2022/10/15 11:20:27;;;;;;;134.23;55.65;;;14.10;99.90;;;;;;5014992;28;20029;-69
2022/10/15 11:23:17;;;;;;;138.02;56.75;;;14.10;99.90;;;;;;5014884;28;20397;-69
2022/10/15 11:26:08;;;;;;;133.75;57.63;;;14.10;99.90;;;;;;5014583;28;20057;-70
2022/10/15 11:28:59;;;;;;;131.43;58.20;;;14.20;99.90;;;;;;5003076;28;20104;-69
2022/10/15 11:31:35;;;;;;;123.50;54.80;;;14.20;99.90;;;;;;5014759;28;20473;-70
2022/10/15 11:34:44;;;;;;;132.07;56.47;;;14.20;99.90;;;;;;5014475;28;20117;-70
2022/10/15 11:37:28;;;;;;;122.10;53.53;;;14.20;99.90;;;;;;5014029;28;20022;-69
2022/10/15 11:40:12;;;;;;;115.13;53.42;;;14.40;99.90;;;;;;5013607;28;20026;-70
2022/10/15 11:42:56;;;;;;;104.93;50.45;;;14.40;99.90;;;;;;5014389;28;20084;-70
2022/10/15 11:45:47;;;;;;;111.10;52.88;;;14.60;99.90;;;;;;5014282;28;20041;-70
2022/10/15 11:48:28;;;;;;;102.45;49.28;;;14.70;99.90;;;;;;5014492;28;20018;-70
2022/10/15 11:51:02;;;;;;;109.80;51.30;;;14.70;99.90;;;;;;5013866;28;20080;-70
2022/10/15 11:53:39;;;;;;;102.70;50.25;;;14.70;99.90;;;;;;5014086;28;20029;-70
2022/10/15 11:56:23;;;;;;;89.13;46.65;;;14.80;99.90;;;;;;5014014;28;20026;-70
2022/10/15 11:59:01;;;;;;;99.93;47.95;;;14.70;99.90;;;;;;5014106;28;20412;-70
2022/10/15 12:01:45;;;;;;;94.95;49.15;;;14.70;99.90;;;;;;5014003;28;20037;-70
2022/10/15 12:04:28;;;;;;;100.50;47.97;;;14.70;99.90;;;;;;5014248;28;20026;-70
2022/10/15 12:06:55;;;;;;;97.07;48.97;;;14.70;99.90;;;;;;5013479;28;20053;-70
2022/10/15 12:09:27;;;;;;;91.15;49.00;;;14.80;99.90;;;;;;5013912;28;20022;-70
2022/10/15 12:12:11;;;;;;;92.70;48.20;;;14.90;99.90;;;;;;5013645;28;20056;-70
2022/10/15 12:15:06;;;;;;;99.60;48.17;;;15.00;99.90;;;;;;5013825;28;20018;-70
2022/10/15 12:17:52;;;;;;;88.68;48.33;;;15.20;99.90;;;;;;5013528;28;20040;-69
2022/10/15 12:20:21;;;;;;;87.10;45.70;;;15.10;99.90;;;;;;5014063;28;20026;-70
2022/10/15 12:22:46;;;;;;;81.72;44.33;;;15.10;99.90;;;;;;5013588;28;20469;-70
2022/10/15 12:25:34;;;;;;;81.68;44.85;;;15.10;99.90;;;;;;5013887;28;20026;-69
2022/10/15 12:28:01;;;;;;;85.38;43.40;;;15.10;99.90;;;;;;5013163;28;20517;-70
2022/10/15 12:30:33;;;;;;;75.53;42.97;;;15.30;99.90;;;;;;5014032;28;20560;-70
2022/10/15 12:32:59;;;;;;;67.78;39.22;;;15.70;99.90;;;;;;5013681;28;20029;-70
2022/10/15 12:35:37;;;;;;;73.68;40.67;;;15.80;99.90;;;;;;5013576;28;20152;-70
2022/10/15 12:38:11;;;;;;;66.13;38.35;;;15.80;99.90;;;;;;5013345;28;20466;-70
2022/10/15 12:40:39;;;;;;;68.45;38.00;;;15.80;99.90;;;;;;5013763;28;20041;-70
2022/10/15 12:43:20;;;;;;;72.47;38.50;;;15.80;99.90;;;;;;5013138;28;20088;-70